Historique des mesures à Cassis (13260), France
Quotidien Résumé Avril 9, 2017 Unités:  Métrique    US   Métrique/US
« Précédent (Jour)
Suivant (Jour) »
Quotidien Hebdomadaire Mensuel Annuel Période au choix
  Maximum: Minimum: Moyenne:
Température: TemperatureC °C 12.6 °C 15.5 °C
Point de rosée: DewpointC °C 3.8 °C 8.5 °C
Humidité: Humidity % 54 % 60 %
Vitesse du vent: 0 km/h 0 km/h 3.4 km/h
Rafales: 0 km/h - -
Vent:- - SSE
Pression: PressurehPa hPa 1020.2 hPa -
Précipitations: 0.0 mm    
Historical Graphs
 
 
Mesures pour : Avril 9, 2017
Heure Temperature Point de rosée Pression Vent Vitesse du vent Rafales Humidité Pluie (par heure) Conditions
TemperatureC °C DewpointC °C PressurehPa hPa Calm     Humidity % HourlyPrecipMM mm SoftwareType W/m2
00:11 13.0 °C 7.5 °C 1020.9 hPa North 4.2 km/h 4.2 km/h 69 % 0.0 mm open2300-1.11 W/m2
01:11 12.9 °C 6.4 °C 1020.9 hPa Calm   5.6 km/h 65 % 0.0 mm open2300-1.11 W/m2
02:11 13.4 °C 6.7 °C 1020.5 hPa Calm   5.1 km/h 64 % 0.0 mm open2300-1.11 W/m2
03:11 13.2 °C 5.8 °C 1020.5 hPa NNE 4.2 km/h 4.2 km/h 61 % 0.0 mm open2300-1.11 W/m2
04:11 12.8 °C 4.9 °C 1020.2 hPa Calm   15 km/h 59 % 0.0 mm open2300-1.11 W/m2
05:11 12.8 °C 4.2 °C 1020.2 hPa NNE 2.3 km/h 3.4 km/h 56 % 0.0 mm open2300-1.11 W/m2
06:11 12.9 °C 3.8 °C 1020.2 hPa Calm   13.2 km/h 54 % 0.0 mm open2300-1.11 W/m2
08:11 12.6 °C 4.0 °C 1021.6 hPa NNE 3.4 km/h 3.4 km/h 56 % 0.0 mm open2300-1.11 W/m2
09:11 14.5 °C 6.1 °C 1021.6 hPa NE 5.6 km/h 5.6 km/h 57 % 0.0 mm open2300-1.11 W/m2
10:11 15.3 °C 8.8 °C 1022.2 hPa SW 6.9 km/h 6.9 km/h 65 % 0.0 mm open2300-1.11 W/m2
11:11 17.5 °C 11.8 °C 1022.6 hPa SSE 3.4 km/h 6.9 km/h 69 % 0.0 mm open2300-1.11 W/m2
12:11 19.9 °C 12.4 °C 1022.9 hPa SSE 3.4 km/h 14.5 km/h 62 % 0.0 mm open2300-1.11 W/m2
13:11 20.2 °C 13.6 °C 1022.2 hPa SE 3.4 km/h 4.7 km/h 66 % 0.0 mm open2300-1.11 W/m2
14:11 20.6 °C 13.5 °C 1021.9 hPa South 7.6 km/h 8 km/h 64 % 0.0 mm open2300-1.11 W/m2
15:11 20.5 °C 13.4 °C 1022.2 hPa SW 9.8 km/h 9.8 km/h 64 % 0.0 mm open2300-1.11 W/m2
16:11 20.0 °C 12.2 °C 1021.6 hPa SSE 5.6 km/h 8 km/h 61 % 0.0 mm open2300-1.11 W/m2
17:11 19.5 °C 12.0 °C 1021.6 hPa SSE 5.1 km/h 14 km/h 62 % 0.0 mm open2300-1.11 W/m2
18:11 18.9 °C 11.2 °C 1021.6 hPa SSE 8 km/h 8 km/h 61 % 0.0 mm open2300-1.11 W/m2
19:11 18.3 °C 11.3 °C 1021.6 hPa Calm   4.2 km/h 64 % 0.0 mm open2300-1.11 W/m2
20:11 17.3 °C 11.3 °C 1021.6 hPa Calm   5.6 km/h 68 % 0.0 mm open2300-1.11 W/m2
21:11 15.6 °C 8.8 °C 1021.6 hPa Calm   3.4 km/h 64 % 0.0 mm open2300-1.11 W/m2
22:11 15.4 °C 7.4 °C 1021.9 hPa NNW 5.6 km/h 5.6 km/h 59 % 0.0 mm open2300-1.11 W/m2
23:11 15.1 °C 7.4 °C 1021.9 hPa NNW 2.3 km/h 2.3 km/h 60 % 0.0 mm open2300-1.11 W/m2
Observations météo à CASSIS
WU-History script by Weather Underground - 1 mb